Time;durP1;ratioP1;P1;durP2;ratioP2;P2;SDS_P1;SDS_P2;PMS_P1;PMS_P2;Temp;Humidity;BMP_temperature;BMP_pressure;BME280_temperature;BME280_humidity;BME280_pressure;Samples;Min_cycle;Max_cycle;Signal;HPM_P1;HPM_P2
2022/11/14 00:01:52;;;;;;;44.88;19.88;;;;;;;10.33;100.00;97952.81;4981183;28;20165;-61
2022/11/14 00:04:17;;;;;;;43.92;20.10;;;;;;;10.38;100.00;97953.47;4984431;28;20503;-61
2022/11/14 00:06:42;;;;;;;41.60;18.80;;;;;;;10.60;100.00;97959.53;4984337;28;20045;-60
2022/11/14 00:09:08;;;;;;;40.67;17.70;;;;;;;10.25;100.00;97954.88;4984332;28;20025;-58
2022/11/14 00:11:33;;;;;;;43.45;21.13;;;;;;;10.10;100.00;97949.34;4983801;28;20088;-61
2022/11/14 00:13:58;;;;;;;42.17;18.08;;;;;;;10.73;100.00;97959.88;4983185;28;20095;-62
2022/11/14 00:16:24;;;;;;;44.40;19.58;;;;;;;10.48;100.00;97965.25;4983028;28;20129;-61
2022/11/14 00:18:50;;;;;;;41.85;18.42;;;;;;;10.75;100.00;97951.94;4982607;28;20097;-61
2022/11/14 00:21:15;;;;;;;46.60;19.45;;;;;;;11.08;100.00;97959.25;4982904;28;20038;-61
2022/11/14 00:23:40;;;;;;;43.42;18.88;;;;;;;10.99;100.00;97956.13;4982970;28;20022;-57
2022/11/14 00:26:06;;;;;;;41.45;18.70;;;;;;;10.98;100.00;97951.81;4984286;28;20097;-61
2022/11/14 00:28:31;;;;;;;38.08;17.50;;;;;;;10.15;100.00;97962.22;4988697;28;20491;-60
2022/11/14 00:30:56;;;;;;;40.47;19.92;;;;;;;10.58;100.00;97956.09;4986840;28;20245;-60
2022/11/14 00:33:22;;;;;;;43.40;18.65;;;;;;;10.79;100.00;97945.72;4991908;28;20947;-62
2022/11/14 00:35:55;;;;;;;38.60;17.83;;;;;;;10.69;100.00;97947.00;4990105;28;20034;-60
2022/11/14 00:38:20;;;;;;;43.72;18.60;;;;;;;10.29;100.00;97935.59;4988974;28;20033;-61
2022/11/14 00:40:46;;;;;;;46.10;19.33;;;;;;;10.46;100.00;97938.38;4989741;28;20042;-60
2022/11/14 00:43:11;;;;;;;43.40;20.30;;;;;;;10.47;100.00;97934.84;4989452;28;20412;-59
2022/11/14 00:45:36;;;;;;;39.53;18.00;;;;;;;10.68;100.00;97921.81;4993034;28;20038;-60
2022/11/14 00:48:02;;;;;;;44.75;19.40;;;;;;;10.73;100.00;97922.47;4987154;28;20029;-60
2022/11/14 00:50:27;;;;;;;40.80;18.70;;;;;;;10.82;100.00;97927.28;4989878;28;20082;-62
2022/11/14 00:52:52;;;;;;;41.05;20.27;;;;;;;10.46;100.00;97932.31;4990426;28;20760;-60
2022/11/14 00:55:18;;;;;;;40.80;19.10;;;;;;;10.56;100.00;97925.81;4992145;28;20033;-60
2022/11/14 00:57:43;;;;;;;40.30;18.35;;;;;;;11.09;100.00;97929.63;4992099;28;20416;-61
2022/11/14 01:00:11;;;;;;;38.60;18.55;;;;;;;10.98;100.00;97923.09;4991711;28;20595;-62
2022/11/14 01:02:37;;;;;;;39.67;17.90;;;;;;;11.27;100.00;97927.97;4989682;28;20026;-61
2022/11/14 01:05:02;;;;;;;42.38;19.80;;;;;;;11.06;100.00;97921.91;4990303;28;20037;-62
2022/11/14 01:07:28;;;;;;;38.35;18.75;;;;;;;10.88;100.00;97920.97;4990130;28;20069;-59
2022/11/14 01:09:53;;;;;;;41.58;18.80;;;;;;;10.73;100.00;97917.25;4993931;28;20038;-61
2022/11/14 01:12:18;;;;;;;41.70;19.00;;;;;;;10.96;100.00;97913.66;4989924;28;20058;-61
2022/11/14 01:14:44;;;;;;;45.45;19.08;;;;;;;10.99;100.00;97905.69;4989427;28;20026;-60
2022/11/14 01:17:09;;;;;;;43.88;19.55;;;;;;;10.87;100.00;97898.41;4987590;28;20062;-61
2022/11/14 01:19:35;;;;;;;38.45;18.00;;;;;;;10.64;100.00;97904.59;4989703;28;20034;-61
2022/11/14 01:22:00;;;;;;;40.90;18.95;;;;;;;10.85;100.00;97906.28;4987752;28;20042;-62
2022/11/14 01:24:26;;;;;;;41.78;19.27;;;;;;;11.03;100.00;97899.44;4989337;28;20159;-59
2022/11/14 01:26:57;;;;;;;36.85;17.33;;;;;;;11.49;100.00;97901.72;4991156;28;20048;-62
2022/11/14 01:29:22;;;;;;;42.10;18.42;;;;;;;10.70;100.00;97891.31;4991141;28;20863;-60
2022/11/14 01:31:47;;;;;;;46.42;21.58;;;;;;;11.09;100.00;97893.09;4989063;28;20038;-61
2022/11/14 01:34:12;;;;;;;37.95;17.80;;;;;;;10.93;100.00;97887.69;4990398;28;20030;-59
2022/11/14 01:36:38;;;;;;;42.28;20.05;;;;;;;10.82;100.00;97892.53;4988936;28;20046;-61
2022/11/14 01:39:03;;;;;;;39.50;18.38;;;;;;;11.03;100.00;97880.28;4988744;28;20054;-62
2022/11/14 01:41:29;;;;;;;40.47;18.63;;;;;;;11.54;100.00;97871.00;4989658;28;20057;-60
2022/11/14 01:43:54;;;;;;;39.10;17.75;;;;;;;11.17;100.00;97877.91;4987784;28;20025;-63
2022/11/14 01:46:27;;;;;;;43.95;19.20;;;;;;;11.29;100.00;97873.91;4990893;28;20137;-60
2022/11/14 01:49:13;;;;;;;43.90;19.65;;;;;;;10.97;100.00;97877.06;4989280;28;20033;-61
2022/11/14 01:52:28;;;;;;;34.65;16.42;;;;;;;10.86;100.00;97881.88;4988204;28;20074;-59
2022/11/14 01:54:57;;;;;;;30.63;14.32;;;;;;;11.32;100.00;97877.22;4984742;28;20128;-60
2022/11/14 01:57:29;;;;;;;33.88;15.98;;;;;;;11.37;100.00;97877.84;4990617;28;20192;-61
2022/11/14 02:00:00;;;;;;;39.17;18.67;;;;;;;11.39;100.00;97880.38;4990131;28;20374;-59
2022/11/14 02:02:25;;;;;;;44.10;18.55;;;;;;;11.33;100.00;97870.22;4995983;28;20038;-60
2022/11/14 02:05:05;;;;;;;40.15;18.63;;;;;;;11.42;100.00;97874.19;4988803;28;20107;-61
2022/11/14 02:07:33;;;;;;;38.83;18.25;;;;;;;11.24;100.00;97881.94;4987790;28;20066;-59
2022/11/14 02:10:03;;;;;;;38.75;18.77;;;;;;;11.14;100.00;97881.50;4989085;28;20072;-60
2022/11/14 02:12:28;;;;;;;43.22;19.40;;;;;;;11.04;100.00;97879.38;4988788;28;20812;-61
2022/11/14 02:14:56;;;;;;;44.35;18.60;;;;;;;11.13;100.00;97885.03;4987693;28;20048;-58
2022/11/14 02:17:22;;;;;;;41.78;19.77;;;;;;;11.31;100.00;97882.50;4989221;28;20681;-59
2022/11/14 02:19:52;;;;;;;43.80;19.02;;;;;;;10.74;100.00;97878.06;4989174;28;20050;-61
2022/11/14 02:22:18;;;;;;;39.65;19.23;;;;;;;11.08;100.00;97886.16;4989528;28;20034;-59
2022/11/14 02:24:44;;;;;;;43.20;19.70;;;;;;;10.72;100.00;97879.06;4988532;28;20041;-60
2022/11/14 02:27:11;;;;;;;32.72;14.30;;;;;;;11.21;100.00;97866.41;4987483;28;20153;-60
2022/11/14 02:29:37;;;;;;;41.53;18.63;;;;;;;10.84;100.00;97873.28;4989552;28;20035;-60
2022/11/14 02:32:03;;;;;;;39.13;17.05;;;;;;;10.63;100.00;97869.84;4991169;28;20041;-61
2022/11/14 02:34:28;;;;;;;44.35;18.95;;;;;;;11.59;100.00;97871.63;4988012;28;20048;-60
2022/11/14 02:36:54;;;;;;;37.10;17.90;;;;;;;11.00;100.00;97879.50;4988339;28;20046;-60
2022/11/14 02:39:20;;;;;;;37.75;18.20;;;;;;;11.48;100.00;97864.28;4990107;28;20069;-61
2022/11/14 02:41:45;;;;;;;40.67;18.67;;;;;;;11.37;100.00;97874.38;4986776;28;20177;-61
2022/11/14 02:44:11;;;;;;;36.88;16.95;;;;;;;11.04;100.00;97877.63;4989214;28;20033;-59
2022/11/14 02:46:36;;;;;;;37.28;17.15;;;;;;;11.37;100.00;97872.63;4988570;28;20492;-59
2022/11/14 02:49:02;;;;;;;34.92;16.65;;;;;;;11.26;100.00;97867.03;4989727;28;20579;-59
2022/11/14 02:51:27;;;;;;;43.40;18.60;;;;;;;11.67;100.00;97874.72;4987079;28;20038;-59
2022/11/14 02:53:53;;;;;;;42.42;18.55;;;;;;;11.69;100.00;97883.34;4985751;28;20602;-59
2022/11/14 02:56:18;;;;;;;39.17;18.23;;;;;;;11.45;100.00;97868.81;4987205;28;20045;-59
2022/11/14 02:58:44;;;;;;;36.38;16.50;;;;;;;11.20;100.00;97877.78;4987516;28;20578;-60
2022/11/14 03:01:09;;;;;;;31.02;14.27;;;;;;;11.23;100.00;97880.25;4988703;28;20116;-58
2022/11/14 03:03:34;;;;;;;36.50;17.45;;;;;;;11.04;100.00;97888.06;4986016;28;20042;-62
2022/11/14 03:06:01;;;;;;;41.60;18.52;;;;;;;11.33;100.00;97884.13;4986442;28;20035;-59
2022/11/14 03:08:27;;;;;;;42.97;18.63;;;;;;;11.29;100.00;97884.34;4987277;28;20038;-61
2022/11/14 03:10:53;;;;;;;47.65;19.35;;;;;;;10.67;100.00;97884.47;4985265;28;20257;-59
2022/11/14 03:13:18;;;;;;;41.63;18.05;;;;;;;10.41;100.00;97885.56;4988496;28;20023;-60
2022/11/14 03:15:43;;;;;;;45.00;19.55;;;;;;;10.31;100.00;97884.25;4988305;28;20684;-59
2022/11/14 03:18:09;;;;;;;38.95;17.50;;;;;;;10.37;100.00;97884.00;4986562;28;20030;-58
2022/11/14 03:20:35;;;;;;;30.92;13.23;;;;;;;10.36;100.00;97887.53;4987876;28;20038;-59
2022/11/14 03:23:00;;;;;;;47.70;18.80;;;;;;;9.43;100.00;97878.16;4986271;28;20506;-59
2022/11/14 03:25:25;;;;;;;45.08;20.05;;;;;;;10.10;100.00;97876.38;4986420;28;20037;-58
2022/11/14 03:27:51;;;;;;;42.05;18.17;;;;;;;10.58;100.00;97877.03;4988391;28;20123;-61
2022/11/14 03:30:17;;;;;;;43.05;18.80;;;;;;;10.02;100.00;97881.06;4987292;28;20416;-58
2022/11/14 03:32:42;;;;;;;36.90;15.60;;;;;;;10.69;100.00;97871.34;4988657;28;21088;-59
2022/11/14 03:35:08;;;;;;;44.20;17.85;;;;;;;10.25;100.00;97872.28;4987070;28;20030;-60
2022/11/14 03:37:34;;;;;;;40.63;17.92;;;;;;;10.28;100.00;97864.34;4988729;28;20103;-60
2022/11/14 03:39:59;;;;;;;41.97;17.50;;;;;;;10.30;100.00;97866.91;4986514;28;20034;-60
2022/11/14 03:42:25;;;;;;;41.08;17.60;;;;;;;10.37;100.00;97870.97;4987275;28;20029;-58
2022/11/14 03:44:50;;;;;;;45.45;19.00;;;;;;;9.93;100.00;97868.41;4987926;28;20034;-60
2022/11/14 03:47:15;;;;;;;43.80;18.55;;;;;;;9.55;100.00;97878.59;4986331;28;20029;-60
2022/11/14 03:49:43;;;;;;;43.70;19.00;;;;;;;9.95;100.00;97871.81;4988723;28;20030;-59
2022/11/14 03:52:10;;;;;;;46.30;18.35;;;;;;;9.83;100.00;97868.78;4988063;28;20030;-60
2022/11/14 03:54:35;;;;;;;47.60;20.20;;;;;;;9.11;100.00;97884.56;4988413;28;20071;-59
2022/11/14 03:57:00;;;;;;;49.72;19.55;;;;;;;9.52;100.00;97876.09;4986562;28;20041;-60
2022/11/14 03:59:25;;;;;;;49.30;20.15;;;;;;;9.36;100.00;97874.09;4988330;28;20038;-59
2022/11/14 04:01:51;;;;;;;48.70;20.58;;;;;;;9.43;100.00;97878.16;4987325;28;20034;-58
2022/11/14 04:04:16;;;;;;;43.40;18.88;;;;;;;9.59;100.00;97869.75;4988313;28;20061;-60
2022/11/14 04:06:41;;;;;;;41.70;19.10;;;;;;;9.70;100.00;97870.16;4984811;28;20836;-59
2022/11/14 04:09:09;;;;;;;39.15;18.67;;;;;;;9.79;100.00;97864.59;4987498;28;20022;-61
2022/11/14 04:11:34;;;;;;;46.72;19.27;;;;;;;9.82;100.00;97867.09;4985602;28;20045;-59
2022/11/14 04:14:00;;;;;;;45.55;20.10;;;;;;;9.29;100.00;97859.63;4989910;28;20041;-58
2022/11/14 04:16:25;;;;;;;40.60;19.60;;;;;;;9.55;100.00;97857.75;4985984;28;20038;-57
2022/11/14 04:18:50;;;;;;;45.67;20.38;;;;;;;9.56;100.00;97859.47;4989332;28;20536;-60
2022/11/14 04:21:16;;;;;;;45.63;21.08;;;;;;;9.43;100.00;97859.94;4985885;28;20479;-59
2022/11/14 04:23:41;;;;;;;47.70;20.42;;;;;;;9.49;100.00;97855.41;4986663;28;20037;-58
2022/11/14 04:26:06;;;;;;;37.45;18.00;;;;;;;9.88;100.00;97849.50;4985216;28;20035;-58
2022/11/14 04:28:31;;;;;;;46.60;21.30;;;;;;;9.82;100.00;97855.81;4987295;28;20119;-59
2022/11/14 04:30:57;;;;;;;44.55;21.83;;;;;;;9.58;100.00;97848.06;4987441;28;20099;-59
2022/11/14 04:33:22;;;;;;;45.67;20.48;;;;;;;10.17;100.00;97845.72;4987369;28;20113;-59
2022/11/14 04:35:47;;;;;;;46.10;21.45;;;;;;;10.03;100.00;97843.66;4986911;28;20043;-58
2022/11/14 04:38:13;;;;;;;43.22;19.92;;;;;;;9.92;100.00;97851.06;4987268;28;20022;-58
2022/11/14 04:40:38;;;;;;;47.42;20.50;;;;;;;9.71;100.00;97848.44;4987066;28;20420;-59
2022/11/14 04:43:03;;;;;;;44.03;19.20;;;;;;;10.03;100.00;97849.75;4987265;28;20822;-59
2022/11/14 04:45:29;;;;;;;40.45;18.38;;;;;;;10.10;100.00;97860.75;4987081;28;20524;-60
2022/11/14 04:47:54;;;;;;;43.78;19.52;;;;;;;10.43;100.00;97852.47;4986402;28;20064;-61
2022/11/14 04:50:20;;;;;;;43.95;18.27;;;;;;;10.53;100.00;97856.38;4987039;28;20018;-59
2022/11/14 04:52:45;;;;;;;39.78;18.52;;;;;;;10.84;100.00;97856.78;4985725;28;20177;-58
2022/11/14 04:55:10;;;;;;;39.63;18.13;;;;;;;11.05;100.00;97858.44;4985063;28;20056;-58
2022/11/14 04:57:36;;;;;;;49.17;19.70;;;;;;;10.49;100.00;97849.56;4985214;28;20033;-58
2022/11/14 05:00:03;;;;;;;43.33;18.73;;;;;;;10.35;100.00;97828.50;4984906;28;20400;-59
2022/11/14 05:02:31;;;;;;;33.50;14.25;;;;;;;10.62;100.00;97826.41;4984054;28;20034;-59
2022/11/14 05:04:57;;;;;;;43.10;18.42;;;;;;;10.51;100.00;97824.31;4986841;28;20073;-59
2022/11/14 05:07:22;;;;;;;33.42;15.32;;;;;;;10.19;100.00;97826.47;4985288;28;20125;-57
2022/11/14 05:09:47;;;;;;;29.00;12.80;;;;;;;10.28;100.00;97822.66;4985508;28;20412;-61
2022/11/14 05:12:13;;;;;;;40.60;17.50;;;;;;;10.32;100.00;97831.22;4985610;28;20496;-62
2022/11/14 05:14:38;;;;;;;38.80;16.42;;;;;;;10.60;100.00;97850.00;4990244;28;20029;-62
2022/11/14 05:17:04;;;;;;;34.70;15.38;;;;;;;10.98;100.00;97855.25;4990283;28;20062;-62
2022/11/14 05:19:29;;;;;;;36.17;16.48;;;;;;;10.60;100.00;97852.59;4989834;28;20627;-61
2022/11/14 05:21:55;;;;;;;35.13;15.35;;;;;;;10.52;100.00;97849.44;4991112;28;20126;-59
2022/11/14 05:24:20;;;;;;;33.00;13.98;;;;;;;10.32;100.00;97845.09;4990494;28;20195;-58
2022/11/14 05:26:45;;;;;;;32.80;15.02;;;;;;;10.66;100.00;97845.38;4988137;28;20066;-59
2022/11/14 05:29:11;;;;;;;34.45;14.48;;;;;;;10.86;100.00;97845.34;4990223;28;20033;-58
2022/11/14 05:31:36;;;;;;;38.38;16.33;;;;;;;10.88;100.00;97858.34;4988732;28;20817;-60
2022/11/14 05:34:01;;;;;;;36.28;17.40;;;;;;;9.81;100.00;97849.78;4990613;28;20026;-58
2022/11/14 05:36:27;;;;;;;40.10;17.55;;;;;;;9.18;100.00;97860.00;4990486;28;20502;-57
2022/11/14 05:38:52;;;;;;;45.13;15.93;;;;;;;10.27;100.00;97867.03;4989804;28;20025;-58
2022/11/14 05:41:19;;;;;;;26.50;11.73;;;;;;;10.50;100.00;97859.09;4989195;28;20081;-58
2022/11/14 05:43:44;;;;;;;38.95;15.70;;;;;;;10.28;100.00;97876.56;4991379;28;20026;-58
2022/11/14 05:46:12;;;;;;;38.65;17.30;;;;;;;10.25;100.00;97868.84;4989854;28;20044;-57
2022/11/14 05:48:38;;;;;;;51.47;20.00;;;;;;;10.27;100.00;97882.66;4991358;28;20108;-61
2022/11/14 05:51:05;;;;;;;47.60;17.80;;;;;;;10.05;100.00;97875.72;4987506;28;20035;-56
2022/11/14 05:53:32;;;;;;;43.85;18.08;;;;;;;10.15;100.00;97878.81;4989261;28;20038;-56
2022/11/14 05:56:04;;;;;;;58.25;17.85;;;;;;;10.13;100.00;97889.28;4989563;28;20061;-56
2022/11/14 05:58:30;;;;;;;;;;;;;;;9.54;100.00;97895.09;4988203;28;20026;-56
2022/11/14 06:01:07;;;;;;;50.58;18.60;;;;;;;9.90;100.00;97891.97;4987628;28;19936;-56
2022/11/14 06:03:35;;;;;;;48.63;19.40;;;;;;;9.38;100.00;97892.25;4989494;28;20117;-57
2022/11/14 06:06:05;;;;;;;49.28;19.50;;;;;;;9.47;100.00;97888.47;4987455;28;20097;-57
2022/11/14 06:08:30;;;;;;;42.90;17.48;;;;;;;9.25;100.00;97876.25;4990229;28;20022;-57
2022/11/14 06:11:00;;;;;;;47.97;18.40;;;;;;;9.33;100.00;97879.41;4990670;28;20438;-57
2022/11/14 06:13:25;;;;;;;43.33;18.77;;;;;;;9.18;100.00;97880.00;4989723;28;20026;-58
2022/11/14 06:15:50;;;;;;;44.97;18.10;;;;;;;9.04;100.00;97867.47;4990165;28;20045;-57
2022/11/14 06:18:16;;;;;;;34.63;12.65;;;;;;;9.03;100.00;97881.41;4988968;28;20021;-57
2022/11/14 06:20:41;;;;;;;42.35;15.30;;;;;;;9.32;100.00;97882.94;4989863;28;20399;-56
2022/11/14 06:23:07;;;;;;;50.75;16.17;;;;;;;9.28;100.00;97881.31;4989234;28;20164;-56
2022/11/14 06:25:32;;;;;;;37.15;15.07;;;;;;;9.50;100.00;97880.50;4987051;28;20108;-57
2022/11/14 06:27:58;;;;;;;41.60;16.67;;;;;;;9.65;100.00;97885.16;4988212;28;20077;-56
2022/11/14 06:30:23;;;;;;;42.17;15.50;;;;;;;9.47;100.00;97902.31;4990633;28;22576;-58
2022/11/14 06:32:48;;;;;;;39.55;15.10;;;;;;;9.64;100.00;97904.28;4989322;28;20040;-57
2022/11/14 06:35:14;;;;;;;42.85;17.58;;;;;;;9.72;100.00;97904.81;4988991;28;20026;-56
2022/11/14 06:37:39;;;;;;;40.05;17.60;;;;;;;9.46;100.00;97895.41;4989585;28;20030;-57
2022/11/14 06:40:05;;;;;;;52.38;18.00;;;;;;;9.49;100.00;97891.84;4988707;28;20606;-56
2022/11/14 06:42:30;;;;;;;39.67;17.92;;;;;;;9.01;100.00;97904.88;4989739;28;20018;-55
2022/11/14 06:44:56;;;;;;;45.15;16.67;;;;;;;9.52;100.00;97925.56;4989261;28;20444;-58
2022/11/14 06:47:21;;;;;;;43.33;18.23;;;;;;;9.19;100.00;97920.72;4988339;28;20042;-56
2022/11/14 06:49:46;;;;;;;40.40;18.02;;;;;;;8.58;100.00;97916.78;4988948;28;20576;-57
2022/11/14 06:52:12;;;;;;;41.42;15.63;;;;;;;9.52;100.00;97926.44;4988373;28;20037;-57
2022/11/14 06:54:37;;;;;;;43.83;18.50;;;;;;;9.82;100.00;97928.75;4989328;28;20586;-58
2022/11/14 06:57:02;;;;;;;40.53;18.00;;;;;;;9.94;100.00;97932.63;4976611;28;20073;-56
2022/11/14 06:59:28;;;;;;;46.40;18.58;;;;;;;9.86;100.00;97919.06;4987117;28;20089;-56
2022/11/14 07:01:53;;;;;;;41.47;19.23;;;;;;;9.19;100.00;97907.69;4987231;28;20034;-57
2022/11/14 07:04:18;;;;;;;41.47;18.48;;;;;;;8.58;100.00;97908.13;4988976;28;20041;-58
2022/11/14 07:06:44;;;;;;;43.97;19.88;;;;;;;9.91;100.00;97917.97;4987553;28;20046;-56
2022/11/14 07:09:10;;;;;;;37.45;18.30;;;;;;;10.63;100.00;97915.97;4987741;28;20407;-57
2022/11/14 07:11:36;;;;;;;38.88;17.88;;;;;;;10.43;100.00;97909.81;4987081;28;20050;-57
2022/11/14 07:14:02;;;;;;;1250.15;71.50;;;;;;;11.80;100.00;97885.44;4988392;28;20030;-57
2022/11/14 07:16:30;;;;;;;281.90;25.73;;;;;;;11.06;100.00;97896.66;4987143;28;20046;-57
2022/11/14 07:18:56;;;;;;;1221.38;74.18;;;;;;;12.59;100.00;97889.44;4988160;28;20026;-56
2022/11/14 07:21:22;;;;;;;553.95;42.75;;;;;;;14.23;100.00;97903.34;4987759;28;20410;-58
2022/11/14 07:23:47;;;;;;;30.45;16.55;;;;;;;15.34;100.00;97909.91;4988896;28;20028;-61
2022/11/14 07:26:12;;;;;;;30.10;15.77;;;;;;;15.71;100.00;97911.09;4989115;28;20038;-59
2022/11/14 07:28:40;;;;;;;24.52;14.15;;;;;;;16.05;100.00;97923.91;4987544;28;20027;-59
2022/11/14 07:31:08;;;;;;;25.70;14.70;;;;;;;15.47;100.00;97929.25;4986362;28;20527;-58
2022/11/14 07:33:34;;;;;;;40.53;17.92;;;;;;;12.91;100.00;97927.91;4985799;28;20026;-59
2022/11/14 07:36:00;;;;;;;37.05;17.85;;;;;;;12.72;100.00;97942.88;4986241;28;20030;-58
2022/11/14 07:38:25;;;;;;;34.50;17.10;;;;;;;13.76;100.00;97956.66;4987045;28;20029;-60
2022/11/14 07:40:59;;;;;;;36.58;18.73;;;;;;;13.05;100.00;97944.66;4986833;28;20148;-59
2022/11/14 07:43:24;;;;;;;32.90;17.00;;;;;;;12.54;100.00;97932.41;4988697;28;20037;-60
2022/11/14 07:45:50;;;;;;;43.28;16.60;;;;;;;11.25;100.00;97928.03;4987326;28;20026;-60
2022/11/14 07:48:17;;;;;;;26.90;14.45;;;;;;;11.56;100.00;97921.38;4989589;28;20033;-60
2022/11/14 07:50:42;;;;;;;29.55;14.82;;;;;;;11.75;100.00;97919.63;4986159;28;20042;-58
2022/11/14 07:53:08;;;;;;;28.95;14.30;;;;;;;12.16;100.00;97929.06;4990561;28;20022;-59
2022/11/14 07:55:36;;;;;;;28.05;13.88;;;;;;;13.65;100.00;97933.66;4989934;28;20157;-60
2022/11/14 07:58:02;;;;;;;25.05;13.73;;;;;;;12.96;100.00;97937.28;4990339;28;20064;-60
2022/11/14 08:00:27;;;;;;;29.77;14.90;;;;;;;12.48;100.00;97927.47;4987851;28;20687;-59
2022/11/14 08:02:53;;;;;;;27.48;15.15;;;;;;;13.00;100.00;97925.75;4986439;28;20034;-59
2022/11/14 08:05:18;;;;;;;28.48;15.13;;;;;;;13.14;100.00;97922.41;4986590;28;20044;-58
2022/11/14 08:07:44;;;;;;;27.42;14.15;;;;;;;13.50;100.00;97919.63;4989831;28;20061;-60
2022/11/14 08:10:10;;;;;;;24.08;14.02;;;;;;;13.78;100.00;97912.88;4986447;28;20041;-60
2022/11/14 08:12:40;;;;;;;30.25;14.52;;;;;;;14.40;100.00;97911.09;4989081;28;20109;-59
2022/11/14 08:15:10;;;;;;;29.35;15.13;;;;;;;13.82;100.00;97914.38;4987956;28;20030;-58
2022/11/14 08:17:35;;;;;;;28.02;15.63;;;;;;;13.51;100.00;97905.59;4986829;28;20046;-59
2022/11/14 08:20:00;;;;;;;27.20;15.52;;;;;;;14.12;100.00;97900.50;4984314;28;20036;-59
2022/11/14 08:22:26;;;;;;;29.20;15.48;;;;;;;13.77;100.00;97895.47;4986350;28;20038;-59
2022/11/14 08:24:51;;;;;;;24.40;13.85;;;;;;;13.79;100.00;97893.59;4988348;28;20124;-59
2022/11/14 08:27:17;;;;;;;26.95;14.30;;;;;;;13.96;100.00;97895.28;4985982;28;20045;-59
2022/11/14 08:29:43;;;;;;;27.15;14.93;;;;;;;13.89;100.00;97910.50;4987584;28;20030;-58
2022/11/14 08:32:09;;;;;;;30.27;15.13;;;;;;;13.56;100.00;97910.59;4986971;28;20121;-58
2022/11/14 08:34:35;;;;;;;26.77;13.75;;;;;;;13.85;100.00;97909.81;4985759;28;20030;-59
2022/11/14 08:37:01;;;;;;;26.63;14.02;;;;;;;14.56;100.00;97918.09;4984638;28;20046;-58
2022/11/14 08:39:27;;;;;;;27.90;13.35;;;;;;;14.52;100.00;97913.91;4986385;28;20483;-59
2022/11/14 08:41:52;;;;;;;28.60;13.32;;;;;;;14.54;100.00;97898.94;4987867;28;20034;-60
2022/11/14 08:44:18;;;;;;;24.65;13.35;;;;;;;15.25;100.00;97892.94;4986999;28;20044;-59
2022/11/14 11:30:07;;;;;;;22.08;7.10;;;;;;;17.24;100.00;97903.69;5103910;27;20414;-61
2022/11/14 11:32:33;;;;;;;21.27;7.00;;;;;;;16.80;100.00;97899.66;5063412;27;20059;-60
2022/11/14 11:35:01;;;;;;;20.92;6.70;;;;;;;16.53;100.00;97909.31;5061761;28;20032;-61
2022/11/14 11:37:31;;;;;;;20.58;6.50;;;;;;;16.80;100.00;97899.66;5060059;28;20068;-60
2022/11/14 11:40:04;;;;;;;28.80;7.40;;;;;;;16.69;100.00;97913.53;5058285;28;20021;-59
2022/11/14 11:42:47;;;;;;;18.83;5.88;;;;;;;16.35;100.00;97916.63;5057371;28;20428;-59
2022/11/14 11:45:16;;;;;;;18.25;5.88;;;;;;;16.52;100.00;97912.91;5056944;28;20050;-58
2022/11/14 11:48:00;;;;;;;18.38;5.78;;;;;;;16.35;100.00;97913.16;5061261;28;20025;-60
2022/11/14 11:50:26;;;;;;;19.73;6.22;;;;;;;16.79;100.00;97917.25;5060425;28;20145;-60
2022/11/14 11:52:57;;;;;;;22.45;6.28;;;;;;;15.89;100.00;97924.88;5059451;28;20028;-58
2022/11/14 11:55:33;;;;;;;18.98;5.20;;;;;;;16.54;100.00;97923.31;5061465;28;20562;-58
2022/11/14 11:58:11;;;;;;;23.13;5.90;;;;;;;16.41;100.00;97925.91;5060786;28;20116;-58
2022/11/14 12:00:37;;;;;;;18.85;5.28;;;;;;;16.32;100.00;97916.88;5059442;28;20040;-57
2022/11/14 12:03:08;;;;;;;18.85;4.97;;;;;;;16.95;99.99;97911.84;5058454;28;20461;-58
2022/11/14 12:05:55;;;;;;;20.10;5.78;;;;;;;16.84;100.00;97911.72;5058756;28;20133;-59
2022/11/14 12:08:35;;;;;;;20.08;5.55;;;;;;;16.95;100.00;97907.41;5058402;28;20196;-58
2022/11/14 12:11:02;;;;;;;17.50;5.15;;;;;;;16.55;100.00;97914.47;5056991;28;20154;-58
2022/11/14 12:13:49;;;;;;;16.02;4.80;;;;;;;16.63;100.00;97906.91;5059028;28;20167;-58
2022/11/14 12:16:20;;;;;;;21.65;5.25;;;;;;;16.19;97.01;97908.91;5059283;28;20047;-58
2022/11/14 12:19:01;;;;;;;20.52;5.78;;;;;;;16.34;100.00;97916.75;5059011;28;20487;-58
2022/11/14 12:21:40;;;;;;;18.83;5.30;;;;;;;15.93;100.00;97915.84;5055696;28;20052;-61
2022/11/14 12:24:29;;;;;;;18.85;5.28;;;;;;;16.08;100.00;97910.53;5058435;28;20372;-58
2022/11/14 12:26:57;;;;;;;17.20;5.25;;;;;;;16.49;100.00;97907.00;5059678;28;20235;-58
2022/11/14 12:29:47;;;;;;;22.20;5.85;;;;;;;16.80;100.00;97910.19;5054997;28;20025;-59
2022/11/14 12:32:37;;;;;;;19.45;5.47;;;;;;;16.55;100.00;97917.13;5047070;28;20060;-58
2022/11/14 12:35:05;;;;;;;18.35;5.28;;;;;;;16.29;100.00;97916.22;5047211;28;20024;-60
2022/11/14 12:37:42;;;;;;;21.55;5.95;;;;;;;16.07;100.00;97922.03;5045660;28;20110;-58
2022/11/14 12:40:24;;;;;;;19.35;5.30;;;;;;;15.54;100.00;97914.78;5044032;28;20017;-58
2022/11/14 12:42:50;;;;;;;14.13;4.95;;;;;;;16.28;100.00;97922.41;5046515;28;20059;-59
2022/11/14 12:45:40;;;;;;;17.15;5.50;;;;;;;16.19;100.00;97921.22;5046211;28;20079;-59
2022/11/14 12:48:24;;;;;;;20.27;5.75;;;;;;;16.13;100.00;97914.56;5045875;28;20036;-56
2022/11/14 12:50:49;;;;;;;19.15;5.50;;;;;;;16.08;100.00;97915.81;5043700;28;20326;-60
2022/11/14 12:53:36;;;;;;;19.75;5.20;;;;;;;16.18;100.00;97919.53;5047019;28;20880;-59
2022/11/14 12:56:16;;;;;;;24.35;5.97;;;;;;;16.87;100.00;97911.50;5045578;28;20037;-59
2022/11/14 12:59:00;;;;;;;29.75;7.13;;;;;;;16.23;100.00;97919.22;5043934;28;20028;-58
2022/11/14 13:01:27;;;;;;;17.45;5.40;;;;;;;16.53;100.00;97911.94;5043245;28;20047;-58
2022/11/14 13:04:13;;;;;;;19.25;5.50;;;;;;;16.44;100.00;97909.09;5046348;28;20028;-58
2022/11/14 13:06:44;;;;;;;16.50;5.00;;;;;;;16.49;100.00;97917.53;5043560;28;20040;-61
2022/11/14 13:09:32;;;;;;;20.40;5.27;;;;;;;16.23;100.00;97917.47;5042062;28;20047;-58
2022/11/14 13:24:10;;;;;;;22.40;6.07;;;;;;;17.57;100.00;97894.34;5043847;28;20039;-58
2022/11/14 13:26:37;;;;;;;19.83;5.22;;;;;;;16.64;100.00;97898.06;5043321;28;20032;-59
2022/11/14 13:29:02;;;;;;;17.77;5.38;;;;;;;17.01;100.00;97890.31;5044305;28;20039;-60
2022/11/14 13:31:33;;;;;;;17.15;5.22;;;;;;;16.72;100.00;97892.28;5042716;28;20083;-60
2022/11/14 13:34:00;;;;;;;16.42;4.90;;;;;;;16.74;100.00;97890.38;5044755;28;20147;-59
2022/11/14 13:36:40;;;;;;;15.18;5.10;;;;;;;16.90;100.00;97887.59;5054792;28;20044;-59
2022/11/14 13:39:27;;;;;;;17.67;5.10;;;;;;;17.19;100.00;97876.81;5044638;28;20651;-60
2022/11/14 13:42:10;;;;;;;15.80;4.50;;;;;;;16.26;100.00;97879.56;5041730;28;20055;-61
2022/11/14 13:44:41;;;;;;;17.30;4.88;;;;;;;16.40;100.00;97870.75;5044111;28;20024;-59
2022/11/14 13:47:25;;;;;;;17.83;4.28;;;;;;;16.27;100.00;97873.38;5043351;28;20052;-58
2022/11/14 13:50:14;;;;;;;18.00;4.63;;;;;;;17.01;100.00;97873.69;5043848;28;20021;-60
2022/11/14 13:52:45;;;;;;;14.02;4.13;;;;;;;17.06;100.00;97880.31;5038434;28;20456;-59
2022/11/14 13:55:46;;;;;;;19.30;4.43;;;;;;;17.27;100.00;97877.94;5036386;28;20060;-58
2022/11/14 13:58:27;;;;;;;15.55;4.20;;;;;;;16.85;100.00;97874.72;5064028;28;20046;-60
2022/11/14 14:01:21;;;;;;;16.58;5.03;;;;;;;17.12;100.00;97869.31;5061527;28;20040;-58
2022/11/14 14:03:55;;;;;;;18.90;5.10;;;;;;;17.19;100.00;97869.75;5062233;28;20027;-62
2022/11/14 14:06:23;;;;;;;14.68;4.55;;;;;;;17.19;100.00;97869.75;5063909;28;20047;-61
2022/11/14 14:09:10;;;;;;;16.92;4.65;;;;;;;16.67;100.00;97860.13;5063665;28;20678;-59
2022/11/14 14:11:54;;;;;;;17.48;4.40;;;;;;;16.89;100.00;97862.19;5062158;28;20459;-59
2022/11/14 14:14:32;;;;;;;16.38;4.22;;;;;;;17.01;100.00;97855.22;5062273;28;20024;-61